sensor_id;sensor_type;location;lat;lon;timestamp;pressure;altitude;pressure_sealevel;temperature;humidity
60852;BME280;48553;50.766;2.900;2023-09-08T00:01:43;100911.91;;;24.39;65.70
60852;BME280;48553;50.766;2.900;2023-09-08T00:04:49;100903.97;;;24.34;65.91
60852;BME280;48553;50.766;2.900;2023-09-08T00:07:53;100912.84;;;24.33;65.98
60852;BME280;48553;50.766;2.900;2023-09-08T00:11:02;100905.25;;;24.30;65.95
60852;BME280;48553;50.766;2.900;2023-09-08T00:14:06;100902.91;;;24.28;65.93
60852;BME280;48553;50.766;2.900;2023-09-08T00:17:07;100912.97;;;24.26;65.95
60852;BME280;48553;50.766;2.900;2023-09-08T00:20:08;100909.34;;;24.25;66.15
60852;BME280;48553;50.766;2.900;2023-09-08T00:23:11;100915.03;;;24.22;66.14
60852;BME280;48553;50.766;2.900;2023-09-08T00:26:11;100906.66;;;24.18;66.29
60852;BME280;48553;50.766;2.900;2023-09-08T00:29:12;100913.91;;;24.15;66.23
60852;BME280;48553;50.766;2.900;2023-09-08T00:32:12;100906.38;;;24.12;66.40
60852;BME280;48553;50.766;2.900;2023-09-08T00:35:13;100903.63;;;24.09;66.36
60852;BME280;48553;50.766;2.900;2023-09-08T00:38:13;100910.00;;;24.09;66.44
60852;BME280;48553;50.766;2.900;2023-09-08T00:41:14;100910.47;;;24.08;66.35
60852;BME280;48553;50.766;2.900;2023-09-08T00:44:14;100900.91;;;24.05;66.33
60852;BME280;48553;50.766;2.900;2023-09-08T00:47:15;100900.94;;;24.02;66.41
60852;BME280;48553;50.766;2.900;2023-09-08T00:50:16;100901.38;;;24.00;66.74
60852;BME280;48553;50.766;2.900;2023-09-08T00:53:17;100897.00;;;23.99;66.44
60852;BME280;48553;50.766;2.900;2023-09-08T00:56:17;100889.47;;;23.96;66.74
60852;BME280;48553;50.766;2.900;2023-09-08T00:59:18;100887.06;;;23.94;66.67
60852;BME280;48553;50.766;2.900;2023-09-08T01:02:19;100886.34;;;23.90;66.64
60852;BME280;48553;50.766;2.900;2023-09-08T01:05:20;100877.56;;;23.88;66.66
60852;BME280;48553;50.766;2.900;2023-09-08T01:08:21;100874.75;;;23.88;66.81
60852;BME280;48553;50.766;2.900;2023-09-08T01:11:22;100882.41;;;23.84;66.89
60852;BME280;48553;50.766;2.900;2023-09-08T01:14:22;100878.09;;;23.80;67.10
60852;BME280;48553;50.766;2.900;2023-09-08T01:17:23;100884.94;;;23.79;67.13
60852;BME280;48553;50.766;2.900;2023-09-08T01:27:18;100876.16;;;23.73;67.18
60852;BME280;48553;50.766;2.900;2023-09-08T01:30:23;100883.41;;;23.70;67.18
60852;BME280;48553;50.766;2.900;2023-09-08T01:33:24;100876.66;;;23.68;67.16
60852;BME280;48553;50.766;2.900;2023-09-08T01:36:26;100881.88;;;23.66;67.02
60852;BME280;48553;50.766;2.900;2023-09-08T01:39:26;100877.94;;;23.63;67.38
60852;BME280;48553;50.766;2.900;2023-09-08T01:42:27;100876.78;;;23.61;67.35
60852;BME280;48553;50.766;2.900;2023-09-08T01:45:27;100879.56;;;23.61;67.39
60852;BME280;48553;50.766;2.900;2023-09-08T01:48:28;100871.22;;;23.57;67.50
60852;BME280;48553;50.766;2.900;2023-09-08T01:51:29;100875.66;;;23.54;67.31
60852;BME280;48553;50.766;2.900;2023-09-08T01:54:29;100870.91;;;23.51;67.57
60852;BME280;48553;50.766;2.900;2023-09-08T01:57:30;100877.69;;;23.50;67.78
60852;BME280;48553;50.766;2.900;2023-09-08T02:00:31;100876.19;;;23.46;67.77
60852;BME280;48553;50.766;2.900;2023-09-08T02:03:32;100876.19;;;23.46;67.70
60852;BME280;48553;50.766;2.900;2023-09-08T02:06:32;100870.22;;;23.44;67.67
60852;BME280;48553;50.766;2.900;2023-09-08T02:09:35;100870.66;;;23.42;67.92
60852;BME280;48553;50.766;2.900;2023-09-08T02:12:36;100875.88;;;23.40;68.12
60852;BME280;48553;50.766;2.900;2023-09-08T02:15:37;100873.09;;;23.37;68.01
60852;BME280;48553;50.766;2.900;2023-09-08T02:18:37;100869.94;;;23.34;67.97
60852;BME280;48553;50.766;2.900;2023-09-08T02:21:38;100885.56;;;23.32;67.91
60852;BME280;48553;50.766;2.900;2023-09-08T02:24:39;100878.81;;;23.29;68.06
60852;BME280;48553;50.766;2.900;2023-09-08T02:27:40;100871.25;;;23.26;68.12
60852;BME280;48553;50.766;2.900;2023-09-08T02:30:40;100880.84;;;23.25;67.86
60852;BME280;48553;50.766;2.900;2023-09-08T02:33:42;100872.91;;;23.24;67.89
60852;BME280;48553;50.766;2.900;2023-09-08T02:36:42;100876.91;;;23.23;68.21
60852;BME280;48553;50.766;2.900;2023-09-08T02:39:42;100876.97;;;23.19;68.02
60852;BME280;48553;50.766;2.900;2023-09-08T02:42:45;100877.41;;;23.14;68.46
60852;BME280;48553;50.766;2.900;2023-09-08T02:45:47;100874.25;;;23.12;68.41
60852;BME280;48553;50.766;2.900;2023-09-08T02:48:47;100879.47;;;23.10;68.12
60852;BME280;48553;50.766;2.900;2023-09-08T02:51:48;100870.72;;;23.08;68.16
60852;BME280;48553;50.766;2.900;2023-09-08T02:54:48;100888.31;;;23.05;68.22
60852;BME280;48553;50.766;2.900;2023-09-08T02:57:48;100883.94;;;23.04;68.43
60852;BME280;48553;50.766;2.900;2023-09-08T03:00:49;100886.38;;;23.02;68.41
60852;BME280;48553;50.766;2.900;2023-09-08T03:03:51;100880.78;;;22.98;68.65
60852;BME280;48553;50.766;2.900;2023-09-08T03:06:52;100888.38;;;22.98;68.53
60852;BME280;48553;50.766;2.900;2023-09-08T03:09:53;100890.41;;;22.93;69.07
60852;BME280;48553;50.766;2.900;2023-09-08T03:12:54;100890.06;;;22.91;69.00
60852;BME280;48553;50.766;2.900;2023-09-08T03:15:55;100887.28;;;22.91;69.18
60852;BME280;48553;50.766;2.900;2023-09-08T03:18:57;100886.44;;;22.91;69.11
60852;BME280;48553;50.766;2.900;2023-09-08T03:21:58;100879.69;;;22.88;69.12
60852;BME280;48553;50.766;2.900;2023-09-08T03:24:59;100880.13;;;22.87;69.13
60852;BME280;48553;50.766;2.900;2023-09-08T03:28:00;100885.75;;;22.83;69.03
60852;BME280;48553;50.766;2.900;2023-09-08T03:31:01;100882.97;;;22.83;69.14
60852;BME280;48553;50.766;2.900;2023-09-08T03:34:02;100874.19;;;22.81;69.29
60852;BME280;48553;50.766;2.900;2023-09-08T03:37:03;100870.25;;;22.79;69.09
60852;BME280;48553;50.766;2.900;2023-09-08T03:40:04;100864.66;;;22.79;69.14
60852;BME280;48553;50.766;2.900;2023-09-08T03:43:06;100873.06;;;22.75;69.34
60852;BME280;48553;50.766;2.900;2023-09-08T03:46:07;100872.69;;;22.73;69.71
60852;BME280;48553;50.766;2.900;2023-09-08T03:49:07;100873.53;;;22.70;69.77
60852;BME280;48553;50.766;2.900;2023-09-08T03:52:08;100865.53;;;22.72;69.62
60852;BME280;48553;50.766;2.900;2023-09-08T03:55:09;100865.53;;;22.72;69.49
60852;BME280;48553;50.766;2.900;2023-09-08T03:58:09;100869.16;;;22.69;69.56
60852;BME280;48553;50.766;2.900;2023-09-08T04:01:10;100867.19;;;22.66;69.64
60852;BME280;48553;50.766;2.900;2023-09-08T04:04:10;100868.03;;;22.63;69.88
60852;BME280;48553;50.766;2.900;2023-09-08T04:07:22;100869.22;;;22.62;70.01
60852;BME280;48553;50.766;2.900;2023-09-08T04:10:25;100874.78;;;22.65;70.03
60852;BME280;48553;50.766;2.900;2023-09-08T04:13:26;100879.97;;;22.63;70.33
60852;BME280;48553;50.766;2.900;2023-09-08T04:16:28;100876.44;;;22.59;70.15
60852;BME280;48553;50.766;2.900;2023-09-08T04:19:28;100872.06;;;22.58;70.62
60852;BME280;48553;50.766;2.900;2023-09-08T04:22:29;100874.84;;;22.58;70.79
60852;BME280;48553;50.766;2.900;2023-09-08T04:25:29;100872.47;;;22.57;70.69
60852;BME280;48553;50.766;2.900;2023-09-08T04:28:30;100869.69;;;22.57;70.67
60852;BME280;48553;50.766;2.900;2023-09-08T04:31:30;100866.50;;;22.55;70.89
60852;BME280;48553;50.766;2.900;2023-09-08T04:34:31;100868.53;;;22.50;70.89
60852;BME280;48553;50.766;2.900;2023-09-08T04:37:31;100867.75;;;22.50;70.98
60852;BME280;48553;50.766;2.900;2023-09-08T04:40:32;100880.56;;;22.47;71.35
60852;BME280;48553;50.766;2.900;2023-09-08T04:43:32;100873.78;;;22.48;71.23
60852;BME280;48553;50.766;2.900;2023-09-08T04:46:34;100888.16;;;22.47;71.01
60852;BME280;48553;50.766;2.900;2023-09-08T04:49:35;100887.38;;;22.43;71.13
60852;BME280;48553;50.766;2.900;2023-09-08T04:52:37;100884.19;;;22.41;71.42
60852;BME280;48553;50.766;2.900;2023-09-08T04:55:37;100890.56;;;22.41;71.16
60852;BME280;48553;50.766;2.900;2023-09-08T04:58:38;100880.63;;;22.40;71.13
60852;BME280;48553;50.766;2.900;2023-09-08T05:01:38;100888.63;;;22.38;71.28
60852;BME280;48553;50.766;2.900;2023-09-08T05:04:43;100891.03;;;22.36;71.40
60852;BME280;48553;50.766;2.900;2023-09-08T05:07:43;100894.66;;;22.33;71.58
60852;BME280;48553;50.766;2.900;2023-09-08T05:10:45;100894.25;;;22.35;71.15
60852;BME280;48553;50.766;2.900;2023-09-08T05:13:46;100904.22;;;22.32;71.64
60852;BME280;48553;50.766;2.900;2023-09-08T05:16:47;100901.88;;;22.30;71.53
60852;BME280;48553;50.766;2.900;2023-09-08T05:19:51;100905.06;;;22.29;71.70
60852;BME280;48553;50.766;2.900;2023-09-08T05:22:55;100903.13;;;22.26;71.95
60852;BME280;48553;50.766;2.900;2023-09-08T05:25:58;100898.34;;;22.23;71.58
60852;BME280;48553;50.766;2.900;2023-09-08T05:29:04;100902.28;;;22.25;71.89
60852;BME280;48553;50.766;2.900;2023-09-08T05:32:06;100900.34;;;22.22;72.07
60852;BME280;48553;50.766;2.900;2023-09-08T05:35:10;100901.94;;;22.20;72.07
60852;BME280;48553;50.766;2.900;2023-09-08T05:38:15;100911.53;;;22.19;72.46
60852;BME280;48553;50.766;2.900;2023-09-08T05:41:17;100919.13;;;22.15;72.28
60852;BME280;48553;50.766;2.900;2023-09-08T05:44:18;100917.91;;;22.16;72.30
60852;BME280;48553;50.766;2.900;2023-09-08T05:47:19;100915.50;;;22.18;72.52
60852;BME280;48553;50.766;2.900;2023-09-08T05:50:19;100918.69;;;22.16;72.60
60852;BME280;48553;50.766;2.900;2023-09-08T05:53:20;100918.28;;;22.18;72.44
60852;BME280;48553;50.766;2.900;2023-09-08T05:56:24;100927.06;;;22.16;72.76
60852;BME280;48553;50.766;2.900;2023-09-08T05:59:29;100924.28;;;22.16;72.94
60852;BME280;48553;50.766;2.900;2023-09-08T06:02:30;100918.31;;;22.14;72.95
60852;BME280;48553;50.766;2.900;2023-09-08T06:05:30;100922.72;;;22.15;73.30
60852;BME280;48553;50.766;2.900;2023-09-08T06:08:31;100919.50;;;22.17;73.15
60852;BME280;48553;50.766;2.900;2023-09-08T06:11:31;100932.25;;;22.18;73.11
60852;BME280;48553;50.766;2.900;2023-09-08T06:14:32;100934.66;;;22.16;73.00
60852;BME280;48553;50.766;2.900;2023-09-08T06:17:32;100938.63;;;22.22;73.41
60852;BME280;48553;50.766;2.900;2023-09-08T06:20:34;100936.22;;;22.20;73.45
60852;BME280;48553;50.766;2.900;2023-09-08T06:23:35;100932.25;;;22.18;73.52
60852;BME280;48553;50.766;2.900;2023-09-08T06:26:36;100928.69;;;22.17;73.68
60852;BME280;48553;50.766;2.900;2023-09-08T06:29:37;100925.84;;;22.21;73.34
60852;BME280;48553;50.766;2.900;2023-09-08T06:32:39;100927.03;;;22.27;73.43
60852;BME280;48553;50.766;2.900;2023-09-08T06:35:40;100933.81;;;22.26;73.48
60852;BME280;48553;50.766;2.900;2023-09-08T06:38:40;100930.59;;;22.31;73.52
60852;BME280;48553;50.766;2.900;2023-09-08T06:41:41;100943.31;;;22.32;73.51
60852;BME280;48553;50.766;2.900;2023-09-08T06:44:42;100938.50;;;22.36;73.30
60852;BME280;48553;50.766;2.900;2023-09-08T06:47:43;100948.50;;;22.37;73.79
60852;BME280;48553;50.766;2.900;2023-09-08T06:50:44;100947.28;;;22.38;73.82
60852;BME280;48553;50.766;2.900;2023-09-08T06:53:46;100936.09;;;22.42;73.93
60852;BME280;48553;50.766;2.900;2023-09-08T06:56:53;100941.22;;;22.47;74.24
60852;BME280;48553;50.766;2.900;2023-09-08T06:59:54;100954.34;;;22.50;74.04
60852;BME280;48553;50.766;2.900;2023-09-08T07:02:54;100945.09;;;22.57;74.09
60852;BME280;48553;50.766;2.900;2023-09-08T07:05:55;100948.25;;;22.62;73.63
60852;BME280;48553;50.766;2.900;2023-09-08T07:08:56;100941.00;;;22.68;73.50
60852;BME280;48553;50.766;2.900;2023-09-08T07:11:57;100947.31;;;22.76;73.15
60852;BME280;48553;50.766;2.900;2023-09-08T07:14:58;100946.41;;;22.86;72.85
60852;BME280;48553;50.766;2.900;2023-09-08T07:17:59;100947.94;;;22.91;72.31
60852;BME280;48553;50.766;2.900;2023-09-08T07:21:00;100956.31;;;22.94;72.56
60852;BME280;48553;50.766;2.900;2023-09-08T07:24:00;100951.06;;;23.00;73.55
60852;BME280;48553;50.766;2.900;2023-09-08T07:27:01;100956.63;;;23.04;74.38
60852;BME280;48553;50.766;2.900;2023-09-08T07:30:02;100950.56;;;23.09;73.78
60852;BME280;48553;50.766;2.900;2023-09-08T07:33:03;100963.28;;;23.17;75.29
60852;BME280;48553;50.766;2.900;2023-09-08T07:36:06;100955.16;;;23.26;74.28
60852;BME280;48553;50.766;2.900;2023-09-08T07:39:07;100954.66;;;23.35;74.28
60852;BME280;48553;50.766;2.900;2023-09-08T07:42:07;100958.94;;;23.43;73.81
60852;BME280;48553;50.766;2.900;2023-09-08T07:45:08;100946.06;;;23.49;73.83
60852;BME280;48553;50.766;2.900;2023-09-08T07:48:10;100956.75;;;23.58;73.62
60852;BME280;48553;50.766;2.900;2023-09-08T07:51:10;100949.41;;;23.68;73.60
60852;BME280;48553;50.766;2.900;2023-09-08T07:54:11;100938.88;;;23.79;73.59
60852;BME280;48553;50.766;2.900;2023-09-08T07:57:12;100943.97;;;23.88;73.36
60852;BME280;48553;50.766;2.900;2023-09-08T08:00:14;100951.41;;;23.98;72.95
60852;BME280;48553;50.766;2.900;2023-09-08T08:03:15;100949.66;;;24.08;73.24
60852;BME280;48553;50.766;2.900;2023-09-08T08:06:16;100949.06;;;24.20;72.90
60852;BME280;48553;50.766;2.900;2023-09-08T08:09:17;100951.31;;;24.29;72.87
60852;BME280;48553;50.766;2.900;2023-09-08T08:12:17;100954.31;;;24.42;72.87
60852;BME280;48553;50.766;2.900;2023-09-08T08:15:19;100955.72;;;24.53;72.95
60852;BME280;48553;50.766;2.900;2023-09-08T08:18:21;100961.16;;;24.64;72.36
60852;BME280;48553;50.766;2.900;2023-09-08T08:21:22;100957.31;;;24.78;72.14
60852;BME280;48553;50.766;2.900;2023-09-08T08:24:23;100956.28;;;24.88;71.65
60852;BME280;48553;50.766;2.900;2023-09-08T08:27:23;100966.88;;;25.00;71.84
60852;BME280;48553;50.766;2.900;2023-09-08T08:30:24;100965.88;;;25.11;71.18
60852;BME280;48553;50.766;2.900;2023-09-08T08:33:25;100969.66;;;25.24;71.05
60852;BME280;48553;50.766;2.900;2023-09-08T08:36:26;100981.44;;;25.35;70.91
60852;BME280;48553;50.766;2.900;2023-09-08T08:39:27;100987.53;;;25.50;70.31
60852;BME280;48553;50.766;2.900;2023-09-08T08:42:32;100996.09;;;25.63;70.29
60852;BME280;48553;50.766;2.900;2023-09-08T08:45:33;100989.72;;;25.79;69.76
60852;BME280;48553;50.766;2.900;2023-09-08T08:48:35;100993.16;;;25.87;69.24
60852;BME280;48553;50.766;2.900;2023-09-08T08:51:38;100995.69;;;26.01;69.43
60852;BME280;48553;50.766;2.900;2023-09-08T08:54:39;100990.00;;;26.21;68.80
60852;BME280;48553;50.766;2.900;2023-09-08T08:57:40;100989.72;;;26.32;68.45
60852;BME280;48553;50.766;2.900;2023-09-08T09:00:41;100994.75;;;26.57;68.35
60852;BME280;48553;50.766;2.900;2023-09-08T09:03:42;100993.69;;;26.67;67.81
60852;BME280;48553;50.766;2.900;2023-09-08T09:06:44;100996.75;;;26.73;67.97
60852;BME280;48553;50.766;2.900;2023-09-08T09:09:46;100998.56;;;26.96;67.19
60852;BME280;48553;50.766;2.900;2023-09-08T09:12:46;100988.19;;;26.93;67.25
60852;BME280;48553;50.766;2.900;2023-09-08T09:15:50;100998.56;;;26.96;67.52
60852;BME280;48553;50.766;2.900;2023-09-08T09:18:58;100995.56;;;27.16;66.89
60852;BME280;48553;50.766;2.900;2023-09-08T09:21:59;100997.78;;;27.24;66.74
60852;BME280;48553;50.766;2.900;2023-09-08T09:25:00;100998.25;;;27.36;66.79
60852;BME280;48553;50.766;2.900;2023-09-08T09:28:02;100987.38;;;27.51;66.20
60852;BME280;48553;50.766;2.900;2023-09-08T09:31:02;100989.06;;;27.61;65.94
60852;BME280;48553;50.766;2.900;2023-09-08T09:34:04;100997.75;;;27.79;65.51
60852;BME280;48553;50.766;2.900;2023-09-08T09:37:05;100998.03;;;27.85;65.83
60852;BME280;48553;50.766;2.900;2023-09-08T09:40:07;100990.47;;;27.95;65.46
60852;BME280;48553;50.766;2.900;2023-09-08T09:43:10;100991.25;;;27.95;65.46
60852;BME280;48553;50.766;2.900;2023-09-08T09:46:14;100983.06;;;28.01;65.59
60852;BME280;48553;50.766;2.900;2023-09-08T09:49:16;100988.31;;;28.24;65.11
60852;BME280;48553;50.766;2.900;2023-09-08T09:52:22;100987.41;;;28.53;64.36
60852;BME280;48553;50.766;2.900;2023-09-08T09:55:31;100983.88;;;28.62;64.30
60852;BME280;48553;50.766;2.900;2023-09-08T09:58:33;100987.22;;;28.82;63.49
60852;BME280;48553;50.766;2.900;2023-09-08T10:01:35;100985.28;;;28.79;63.78
60852;BME280;48553;50.766;2.900;2023-09-08T10:04:35;100983.28;;;29.02;62.79
60852;BME280;48553;50.766;2.900;2023-09-08T10:07:36;100980.09;;;29.12;62.60
60852;BME280;48553;50.766;2.900;2023-09-08T10:10:37;100984.38;;;29.04;63.28
60852;BME280;48553;50.766;2.900;2023-09-08T10:13:44;100984.25;;;29.21;63.02
60852;BME280;48553;50.766;2.900;2023-09-08T10:16:46;100988.03;;;29.27;63.47
60852;BME280;48553;50.766;2.900;2023-09-08T10:19:50;100982.81;;;29.47;62.11
60852;BME280;48553;50.766;2.900;2023-09-08T10:23:04;100989.00;;;29.55;62.35
60852;BME280;48553;50.766;2.900;2023-09-08T10:26:10;100990.75;;;29.62;61.65
60852;BME280;48553;50.766;2.900;2023-09-08T10:29:13;100988.91;;;29.68;61.59
60852;BME280;48553;50.766;2.900;2023-09-08T10:32:15;100989.13;;;29.73;61.55
60852;BME280;48553;50.766;2.900;2023-09-08T10:35:19;100987.44;;;29.85;61.37
60852;BME280;48553;50.766;2.900;2023-09-08T10:38:31;100988.44;;;30.01;60.69
60852;BME280;48553;50.766;2.900;2023-09-08T10:41:32;100988.28;;;30.04;61.03
60852;BME280;48553;50.766;2.900;2023-09-08T10:44:32;100988.66;;;30.25;60.30
60852;BME280;48553;50.766;2.900;2023-09-08T10:50:59;100981.53;;;30.51;59.46
60852;BME280;48553;50.766;2.900;2023-09-08T10:53:59;100988.59;;;30.47;59.76
60852;BME280;48553;50.766;2.900;2023-09-08T10:57:00;100990.34;;;30.63;59.19
60852;BME280;48553;50.766;2.900;2023-09-08T11:00:05;100981.06;;;30.80;58.52
60852;BME280;48553;50.766;2.900;2023-09-08T11:03:12;100985.47;;;30.72;59.10
60852;BME280;48553;50.766;2.900;2023-09-08T11:06:16;100982.06;;;30.87;58.77
60852;BME280;48553;50.766;2.900;2023-09-08T11:09:17;100982.50;;;30.94;58.44
60852;BME280;48553;50.766;2.900;2023-09-08T11:12:18;100978.41;;;30.95;58.61
60852;BME280;48553;50.766;2.900;2023-09-08T11:15:20;100980.00;;;30.96;57.91
60852;BME280;48553;50.766;2.900;2023-09-08T11:18:27;100979.34;;;31.20;56.77
60852;BME280;48553;50.766;2.900;2023-09-08T11:21:28;100976.34;;;31.33;56.45
60852;BME280;48553;50.766;2.900;2023-09-08T11:24:34;100983.28;;;31.32;56.38
60852;BME280;48553;50.766;2.900;2023-09-08T11:27:35;100973.31;;;31.55;54.78
60852;BME280;48553;50.766;2.900;2023-09-08T11:30:36;100977.53;;;31.69;54.96
60852;BME280;48553;50.766;2.900;2023-09-08T11:33:36;100981.78;;;31.64;55.52
60852;BME280;48553;50.766;2.900;2023-09-08T11:36:40;100983.00;;;31.72;55.14
60852;BME280;48553;50.766;2.900;2023-09-08T11:39:40;100980.66;;;31.71;55.56
60852;BME280;48553;50.766;2.900;2023-09-08T11:42:43;100985.44;;;31.55;55.58
60852;BME280;48553;50.766;2.900;2023-09-08T11:45:44;100980.69;;;31.61;55.44
60852;BME280;48553;50.766;2.900;2023-09-08T11:48:46;100989.94;;;31.71;54.88
60852;BME280;48553;50.766;2.900;2023-09-08T11:51:47;100993.25;;;31.70;55.28
60852;BME280;48553;50.766;2.900;2023-09-08T11:54:47;100972.91;;;31.80;54.54
60852;BME280;48553;50.766;2.900;2023-09-08T11:57:51;100983.16;;;31.78;54.77
60852;BME280;48553;50.766;2.900;2023-09-08T12:00:55;100987.16;;;32.04;54.30
60852;BME280;48553;50.766;2.900;2023-09-08T12:03:55;100984.75;;;32.12;53.75
60852;BME280;48553;50.766;2.900;2023-09-08T12:06:58;100977.06;;;32.03;54.28
60852;BME280;48553;50.766;2.900;2023-09-08T12:10:09;100981.78;;;32.07;53.43
60852;BME280;48553;50.766;2.900;2023-09-08T12:13:10;100976.91;;;32.07;53.36
60852;BME280;48553;50.766;2.900;2023-09-08T12:16:20;100982.41;;;32.35;52.14
60852;BME280;48553;50.766;2.900;2023-09-08T12:19:31;100973.53;;;32.42;52.21
60852;BME280;48553;50.766;2.900;2023-09-08T12:22:32;100971.84;;;32.35;52.50
60852;BME280;48553;50.766;2.900;2023-09-08T12:25:33;100975.34;;;32.30;51.96
60852;BME280;48553;50.766;2.900;2023-09-08T12:28:34;100966.06;;;32.30;52.35
60852;BME280;48553;50.766;2.900;2023-09-08T12:31:35;100972.81;;;32.32;52.08
60852;BME280;48553;50.766;2.900;2023-09-08T12:34:36;100974.81;;;32.41;51.91
60852;BME280;48553;50.766;2.900;2023-09-08T12:37:38;100969.69;;;32.54;51.34
60852;BME280;48553;50.766;2.900;2023-09-08T12:40:38;100966.13;;;32.69;51.29
60852;BME280;48553;50.766;2.900;2023-09-08T12:43:39;100970.91;;;32.62;51.92
60852;BME280;48553;50.766;2.900;2023-09-08T12:46:39;100964.28;;;32.80;49.85
60852;BME280;48553;50.766;2.900;2023-09-08T12:49:40;100973.06;;;32.67;50.55
60852;BME280;48553;50.766;2.900;2023-09-08T12:52:41;100963.22;;;32.54;50.49
60852;BME280;48553;50.766;2.900;2023-09-08T12:55:41;100967.56;;;33.03;49.01
60852;BME280;48553;50.766;2.900;2023-09-08T12:58:42;100960.09;;;32.91;49.15
60852;BME280;48553;50.766;2.900;2023-09-08T13:01:42;100951.56;;;32.76;49.79
60852;BME280;48553;50.766;2.900;2023-09-08T13:04:43;100963.16;;;32.63;49.24
60852;BME280;48553;50.766;2.900;2023-09-08T13:07:48;100960.03;;;32.61;49.35
60852;BME280;48553;50.766;2.900;2023-09-08T13:10:49;100959.84;;;32.64;49.53
60852;BME280;48553;50.766;2.900;2023-09-08T13:13:49;100956.34;;;32.45;49.24
60852;BME280;48553;50.766;2.900;2023-09-08T13:16:50;100947.78;;;32.55;48.80
60852;BME280;48553;50.766;2.900;2023-09-08T13:19:50;100938.03;;;32.71;49.27
60852;BME280;48553;50.766;2.900;2023-09-08T13:22:51;100943.25;;;32.48;48.47
60852;BME280;48553;50.766;2.900;2023-09-08T13:25:51;100948.31;;;32.44;48.88
60852;BME280;48553;50.766;2.900;2023-09-08T13:28:51;100944.44;;;32.56;48.54
60852;BME280;48553;50.766;2.900;2023-09-08T13:31:53;100943.25;;;32.48;48.11
60852;BME280;48553;50.766;2.900;2023-09-08T13:34:54;100932.16;;;32.59;47.19
60852;BME280;48553;50.766;2.900;2023-09-08T13:37:54;100932.91;;;32.60;47.82
60852;BME280;48553;50.766;2.900;2023-09-08T13:40:56;100934.06;;;32.53;48.36
60852;BME280;48553;50.766;2.900;2023-09-08T13:43:56;100930.06;;;32.36;48.42
60852;BME280;48553;50.766;2.900;2023-09-08T13:46:59;100935.94;;;32.32;47.96
60852;BME280;48553;50.766;2.900;2023-09-08T13:50:00;100932.81;;;32.30;48.18
60852;BME280;48553;50.766;2.900;2023-09-08T13:53:00;100929.66;;;32.28;49.03
60852;BME280;48553;50.766;2.900;2023-09-08T13:56:01;100933.28;;;32.29;48.61
60852;BME280;48553;50.766;2.900;2023-09-08T13:59:02;100930.28;;;32.32;48.25
60852;BME280;48553;50.766;2.900;2023-09-08T14:02:03;100928.28;;;32.23;48.72
60852;BME280;48553;50.766;2.900;2023-09-08T14:05:07;100917.72;;;32.24;48.92
60852;BME280;48553;50.766;2.900;2023-09-08T14:08:09;100927.56;;;32.14;49.44
60852;BME280;48553;50.766;2.900;2023-09-08T14:11:10;100916.84;;;32.09;48.38
60852;BME280;48553;50.766;2.900;2023-09-08T14:14:12;100910.41;;;32.08;48.67
60852;BME280;48553;50.766;2.900;2023-09-08T14:17:13;100915.09;;;32.11;48.03
60852;BME280;48553;50.766;2.900;2023-09-08T14:20:13;100914.88;;;32.00;47.91
60852;BME280;48553;50.766;2.900;2023-09-08T14:23:14;100916.00;;;31.93;48.14
60852;BME280;48553;50.766;2.900;2023-09-08T14:26:15;100912.72;;;31.86;48.23
60852;BME280;48553;50.766;2.900;2023-09-08T14:29:18;100912.84;;;31.91;47.96
60852;BME280;48553;50.766;2.900;2023-09-08T14:32:20;100912.53;;;31.89;47.02
60852;BME280;48553;50.766;2.900;2023-09-08T14:35:20;100912.91;;;31.82;47.48
60852;BME280;48553;50.766;2.900;2023-09-08T14:38:21;100917.59;;;31.85;47.57
60852;BME280;48553;50.766;2.900;2023-09-08T14:41:21;100904.44;;;31.73;48.31
60852;BME280;48553;50.766;2.900;2023-09-08T14:44:22;100906.97;;;31.71;48.35
60852;BME280;48553;50.766;2.900;2023-09-08T14:47:23;100910.44;;;31.66;48.38
60852;BME280;48553;50.766;2.900;2023-09-08T14:50:23;100910.44;;;31.66;47.52
60852;BME280;48553;50.766;2.900;2023-09-08T14:53:24;100903.78;;;31.78;47.05
60852;BME280;48553;50.766;2.900;2023-09-08T14:56:24;100901.91;;;31.75;47.03
60852;BME280;48553;50.766;2.900;2023-09-08T14:59:25;100900.03;;;31.72;48.30
60852;BME280;48553;50.766;2.900;2023-09-08T15:02:26;100900.69;;;31.67;48.49
60852;BME280;48553;50.766;2.900;2023-09-08T15:05:26;100905.28;;;31.64;48.80
60852;BME280;48553;50.766;2.900;2023-09-08T15:08:28;100898.03;;;31.63;49.22
60852;BME280;48553;50.766;2.900;2023-09-08T15:11:28;100900.75;;;31.57;50.08
60852;BME280;48553;50.766;2.900;2023-09-08T15:14:29;100905.31;;;31.55;50.29
60852;BME280;48553;50.766;2.900;2023-09-08T15:17:30;100903.72;;;31.54;50.08
60852;BME280;48553;50.766;2.900;2023-09-08T15:20:30;100906.13;;;31.46;50.23
60852;BME280;48553;50.766;2.900;2023-09-08T15:23:31;100904.53;;;31.45;50.53
60852;BME280;48553;50.766;2.900;2023-09-08T15:26:31;100899.38;;;31.34;51.09
60852;BME280;48553;50.766;2.900;2023-09-08T15:29:32;100907.56;;;31.32;50.67
60852;BME280;48553;50.766;2.900;2023-09-08T15:32:33;100899.69;;;31.27;50.78
60852;BME280;48553;50.766;2.900;2023-09-08T15:35:33;100899.56;;;31.21;50.45
60852;BME280;48553;50.766;2.900;2023-09-08T15:38:34;100901.63;;;31.21;50.65
60852;BME280;48553;50.766;2.900;2023-09-08T15:41:34;100893.78;;;31.16;50.97
60852;BME280;48553;50.766;2.900;2023-09-08T15:44:35;100902.00;;;31.05;51.59
60852;BME280;48553;50.766;2.900;2023-09-08T15:47:35;100889.06;;;31.04;51.33
60852;BME280;48553;50.766;2.900;2023-09-08T15:50:35;100886.59;;;30.96;51.15
60852;BME280;48553;50.766;2.900;2023-09-08T15:53:38;100893.66;;;30.92;51.16
60852;BME280;48553;50.766;2.900;2023-09-08T15:56:39;100892.38;;;30.84;51.93
60852;BME280;48553;50.766;2.900;2023-09-08T15:59:39;100882.47;;;30.79;51.80